Time;durP1;ratioP1;P1;durP2;ratioP2;P2;SDS_P1;SDS_P2;PMS_P1;PMS_P2;Temp;Humidity;BMP_temperature;BMP_pressure;BME280_temperature;BME280_humidity;BME280_pressure;Samples;Min_cycle;Max_cycle;Signal;HPM_P1;HPM_P2
2022/03/24 00:01:51;;;;;;;137.57;66.40;;;2.00;99.90;;;;;;5061299;28;20040;-76
2022/03/24 00:04:17;;;;;;;128.63;64.70;;;2.10;99.90;;;;;;5094949;28;20050;-80
2022/03/24 00:06:43;;;;;;;148.77;70.73;;;2.10;99.90;;;;;;5077720;28;20043;-81
2022/03/24 00:09:09;;;;;;;161.80;74.33;;;2.30;99.90;;;;;;5111484;28;20122;-76
2022/03/24 00:11:35;;;;;;;199.67;89.60;;;2.40;99.90;;;;;;5094468;28;20130;-76
2022/03/24 00:14:01;;;;;;;191.40;84.07;;;2.60;1.00;;;;;;5111384;28;20390;-81
2022/03/24 00:16:26;;;;;;;179.03;77.50;;;2.70;1.00;;;;;;5111438;28;20539;-76
2022/03/24 00:18:53;;;;;;;174.43;77.37;;;2.80;1.00;;;;;;5078188;28;20085;-81
2022/03/24 00:21:19;;;;;;;141.17;66.40;;;2.80;1.00;;;;;;5111910;28;20478;-81
2022/03/24 00:23:44;;;;;;;149.77;69.97;;;2.60;1.00;;;;;;5113498;28;20121;-76
2022/03/24 00:26:10;;;;;;;155.80;71.80;;;2.60;1.00;;;;;;5115374;28;20044;-76
2022/03/24 00:28:36;;;;;;;143.37;68.93;;;2.50;1.00;;;;;;5115095;28;20043;-77
2022/03/24 00:31:02;;;;;;;187.97;82.43;;;2.40;1.00;;;;;;5098096;28;20489;-79
2022/03/24 00:33:29;;;;;;;196.30;85.00;;;2.40;1.00;;;;;;5115174;28;20040;-76
2022/03/24 00:35:56;;;;;;;210.60;94.80;;;2.50;1.00;;;;;;5115179;28;20085;-81
2022/03/24 00:38:22;;;;;;;209.93;92.80;;;2.80;1.00;;;;;;5114977;28;20059;-75
2022/03/24 00:40:48;;;;;;;216.83;97.07;;;3.00;1.00;;;;;;5081379;28;20039;-80
2022/03/24 00:43:14;;;;;;;204.10;97.43;;;3.30;1.00;;;;;;5098038;28;20040;-76
2022/03/24 00:45:40;;;;;;;216.07;95.53;;;3.50;1.00;;;;;;5114873;28;20047;-76
2022/03/24 00:48:10;;;;;;;206.87;99.63;;;3.70;1.00;;;;;;5115046;28;20126;-76
2022/03/24 00:50:36;;;;;;;193.13;91.77;;;3.70;1.00;;;;;;5097951;28;20062;-76
2022/03/24 00:53:04;;;;;;;188.17;89.97;;;3.80;1.00;;;;;;5115103;28;20044;-81
2022/03/24 00:55:30;;;;;;;187.43;86.03;;;3.80;1.00;;;;;;5098143;28;20546;-76
2022/03/24 00:57:56;;;;;;;165.77;80.43;;;3.80;1.00;;;;;;5081001;28;20082;-76
2022/03/24 01:00:25;;;;;;;155.90;76.43;;;3.80;1.00;;;;;;5097556;28;20048;-80
2022/03/24 01:02:53;;;;;;;178.20;81.40;;;3.70;1.00;;;;;;5114609;28;20054;-81
2022/03/24 01:05:21;;;;;;;175.80;83.20;;;3.60;1.00;;;;;;5114498;28;20051;-76
2022/03/24 01:07:48;;;;;;;146.60;70.53;;;3.60;1.00;;;;;;5114739;28;20108;-76
2022/03/24 01:10:16;;;;;;;178.47;76.30;;;3.50;1.00;;;;;;5097545;28;20043;-81
2022/03/24 01:12:43;;;;;;;139.60;66.53;;;3.30;1.00;;;;;;5097307;28;20047;-75
2022/03/24 01:15:17;;;;;;;156.90;74.83;;;3.20;1.00;;;;;;5097356;28;20142;-81
2022/03/24 01:17:44;;;;;;;181.23;80.23;;;3.00;1.00;;;;;;5114072;28;20075;-81
2022/03/24 01:20:11;;;;;;;214.33;87.03;;;2.90;1.00;;;;;;5114516;28;20051;-81
2022/03/24 01:22:37;;;;;;;236.77;91.70;;;2.90;1.00;;;;;;5114082;28;20043;-82
2022/03/24 01:25:06;;;;;;;126.87;63.43;;;2.90;1.00;;;;;;5097117;28;20054;-81
2022/03/24 01:27:32;;;;;;;180.23;72.17;;;2.70;1.00;;;;;;5113993;28;20043;-76
2022/03/24 01:29:59;;;;;;;157.00;63.90;;;2.60;1.00;;;;;;5113953;28;20047;-76
2022/03/24 01:32:28;;;;;;;141.77;63.40;;;2.50;1.00;;;;;;5096912;28;20083;-81
2022/03/24 01:34:57;;;;;;;202.00;73.87;;;2.30;1.00;;;;;;5097012;28;20100;-76
2022/03/24 01:37:23;;;;;;;279.63;95.40;;;2.30;1.00;;;;;;5113976;28;20108;-81
2022/03/24 01:39:50;;;;;;;222.73;79.60;;;2.40;99.90;;;;;;5097187;28;20039;-76
2022/03/24 01:42:18;;;;;;;216.60;81.50;;;2.30;99.90;;;;;;5113666;28;20051;-81
2022/03/24 01:44:48;;;;;;;167.53;70.93;;;2.20;99.90;;;;;;5080075;28;20078;-76
2022/03/24 01:47:15;;;;;;;196.50;75.17;;;2.10;99.90;;;;;;5113528;28;20041;-76
2022/03/24 01:49:43;;;;;;;165.70;67.20;;;2.10;99.90;;;;;;5080166;28;20472;-76
2022/03/24 01:52:11;;;;;;;151.23;62.50;;;1.90;99.90;;;;;;5096395;28;20050;-76
2022/03/24 01:54:40;;;;;;;161.20;68.23;;;1.70;99.90;;;;;;5096588;28;20048;-81
2022/03/24 01:57:09;;;;;;;196.37;78.80;;;1.70;99.90;;;;;;5113654;28;20556;-76
2022/03/24 01:59:38;;;;;;;186.90;76.33;;;1.70;99.90;;;;;;5096863;28;20043;-76
2022/03/24 02:02:05;;;;;;;175.30;70.57;;;1.80;99.90;;;;;;5113170;28;20092;-80
2022/03/24 02:04:32;;;;;;;171.33;67.33;;;1.80;99.90;;;;;;5079490;28;20130;-76
2022/03/24 02:06:58;;;;;;;224.57;85.27;;;1.70;99.90;;;;;;5113483;28;20489;-75
2022/03/24 02:09:24;;;;;;;256.50;95.20;;;1.70;99.90;;;;;;5096100;28;20043;-75
2022/03/24 02:11:50;;;;;;;237.27;93.83;;;1.90;99.90;;;;;;5113175;28;20043;-76
2022/03/24 02:14:15;;;;;;;243.83;90.20;;;2.00;99.90;;;;;;5079317;28;20107;-76
2022/03/24 02:16:41;;;;;;;245.13;90.77;;;2.00;99.90;;;;;;5113113;28;20389;-76
2022/03/24 02:19:18;;;;;;;236.23;89.57;;;2.00;99.90;;;;;;5096106;28;20073;-80
2022/03/24 02:21:45;;;;;;;214.67;86.30;;;2.00;99.90;;;;;;5096267;28;20489;-80
2022/03/24 02:24:13;;;;;;;227.23;80.87;;;2.00;99.90;;;;;;5112997;28;20045;-77
2022/03/24 02:26:40;;;;;;;174.70;68.27;;;2.00;99.90;;;;;;5096183;28;20036;-76
2022/03/24 02:29:07;;;;;;;171.77;68.27;;;1.80;69.70;;;;;;5112761;28;20126;-81
2022/03/24 02:31:38;;;;;;;183.80;70.10;;;1.60;41.70;;;;;;5095779;28;20047;-80
2022/03/24 02:36:52;;;;;;;175.53;66.90;;;1.40;13.80;;;;;;5112587;28;20054;-76
2022/03/24 02:39:18;;;;;;;178.40;70.07;;;1.30;14.20;;;;;;5112664;28;20044;-76
2022/03/24 02:41:52;;;;;;;230.07;83.07;;;1.20;15.10;;;;;;5112451;28;20046;-80
2022/03/24 02:44:22;;;;;;;;;;;1.30;23.90;;;;;;5113019;28;20043;-75
2022/03/24 02:46:50;;;;;;;242.27;81.33;;;1.40;49.80;;;;;;5111525;28;20014;-76
2022/03/24 02:49:24;;;;;;;216.90;75.20;;;1.40;34.40;;;;;;5112329;28;20112;-80
2022/03/24 02:51:55;;;;;;;243.43;79.77;;;1.30;26.90;;;;;;5112521;28;20131;-76
2022/03/24 02:54:22;;;;;;;267.40;79.77;;;1.30;19.60;;;;;;5112537;28;20048;-76
2022/03/24 02:56:48;;;;;;;180.13;68.10;;;1.20;9.50;;;;;;5112293;28;20146;-76
2022/03/24 02:59:15;;;;;;;171.27;66.50;;;1.10;2.00;;;;;;5095427;28;20126;-75
2022/03/24 03:01:44;;;;;;;225.23;75.17;;;1.00;3.10;;;;;;5095650;28;20409;-80
2022/03/24 03:04:10;;;;;;;273.53;79.37;;;1.00;1.00;;;;;;5095191;28;20039;-76
2022/03/24 03:06:39;;;;;;;246.90;79.93;;;1.00;11.40;;;;;;5112042;28;20044;-76
2022/03/24 03:09:06;;;;;;;283.07;82.87;;;0.90;17.80;;;;;;5095456;28;20113;-80
2022/03/24 03:11:33;;;;;;;229.20;76.80;;;0.90;19.60;;;;;;5078495;28;20068;-80
2022/03/24 03:14:01;;;;;;;247.17;83.60;;;0.90;24.30;;;;;;5113274;28;20067;-80
2022/03/24 03:16:28;;;;;;;231.83;84.53;;;0.90;37.90;;;;;;5095025;28;20040;-76
2022/03/24 03:18:55;;;;;;;304.33;88.77;;;0.90;61.40;;;;;;5112282;28;20051;-76
2022/03/24 03:21:21;;;;;;;285.90;88.30;;;0.90;92.50;;;;;;5095195;28;20083;-76
2022/03/24 03:23:47;;;;;;;191.20;73.60;;;1.00;93.70;;;;;;5112473;28;20508;-80
2022/03/24 03:26:17;;;;;;;185.67;69.10;;;1.00;91.00;;;;;;5111947;28;20036;-75
2022/03/24 03:28:42;;;;;;;249.97;75.47;;;0.90;81.00;;;;;;5095154;28;20040;-75
2022/03/24 03:31:08;;;;;;;229.33;75.60;;;0.80;68.60;;;;;;5111757;28;20054;-76
2022/03/24 03:33:36;;;;;;;632.87;93.73;;;0.80;55.60;;;;;;5112102;28;20130;-76
2022/03/24 03:36:05;;;;;;;1860.10;149.70;;;0.70;45.60;;;;;;5078486;28;20047;-80
2022/03/24 03:38:33;;;;;;;172.97;61.37;;;0.70;48.30;;;;;;5112006;28;20043;-80
2022/03/24 03:41:02;;;;;;;129.57;56.33;;;0.70;58.70;;;;;;5112061;28;20509;-76
2022/03/24 03:43:28;;;;;;;203.60;73.13;;;0.60;62.00;;;;;;5111919;28;20047;-80
2022/03/24 03:45:54;;;;;;;209.93;75.17;;;0.70;78.00;;;;;;5078108;28;20039;-80
2022/03/24 03:48:20;;;;;;;224.73;78.70;;;0.80;99.90;;;;;;5112023;28;20043;-80
2022/03/24 03:50:45;;;;;;;262.53;83.27;;;0.90;99.90;;;;;;5094611;28;20116;-76
2022/03/24 03:53:11;;;;;;;250.03;80.30;;;1.00;99.90;;;;;;5077975;28;20051;-76
2022/03/24 03:55:37;;;;;;;226.33;79.93;;;1.00;99.90;;;;;;5112035;28;20486;-75
2022/03/24 03:58:04;;;;;;;262.97;90.83;;;1.10;99.90;;;;;;5095909;28;20040;-76
2022/03/24 04:03:14;;;;;;;290.97;89.50;;;1.20;99.90;;;;;;5115765;28;20057;-81
2022/03/24 04:05:39;;;;;;;250.93;81.73;;;1.20;99.90;;;;;;5098874;28;20544;-80
2022/03/24 04:08:07;;;;;;;177.77;68.20;;;1.20;99.90;;;;;;5115637;28;20459;-75
2022/03/24 04:10:33;;;;;;;136.90;58.23;;;1.20;99.90;;;;;;5115438;28;20105;-75
2022/03/24 04:12:59;;;;;;;129.97;55.70;;;1.00;99.90;;;;;;5098374;28;20518;-77
2022/03/24 04:15:26;;;;;;;147.67;60.53;;;0.90;99.90;;;;;;5098385;28;20051;-80
2022/03/24 04:17:52;;;;;;;648.00;71.17;;;0.70;99.90;;;;;;5115451;28;20044;-80
2022/03/24 04:20:21;;;;;;;988.90;93.23;;;0.60;99.90;;;;;;5115306;28;20082;-80
2022/03/24 04:22:48;;;;;;;806.17;83.93;;;0.40;99.90;;;;;;5098324;28;20051;-81
2022/03/24 04:25:15;;;;;;;119.23;42.97;;;0.30;99.90;;;;;;5115521;28;20048;-81
2022/03/24 04:27:41;;;;;;;54.93;37.30;;;0.20;99.90;;;;;;5098503;28;20524;-76
2022/03/24 04:30:08;;;;;;;63.57;40.20;;;0.10;99.90;;;;;;5098148;28;20081;-75
2022/03/24 04:32:34;;;;;;;62.30;39.67;;;0.00;99.90;;;;;;5098297;28;20050;-80
2022/03/24 04:35:00;;;;;;;55.70;35.70;;;0.00;99.90;;;;;;5098452;28;20040;-80
2022/03/24 04:37:26;;;;;;;94.10;47.03;;;0.00;99.90;;;;;;5098486;28;20509;-75
2022/03/24 04:39:51;;;;;;;86.03;46.30;;;0.10;99.90;;;;;;5114990;28;20083;-80
2022/03/24 04:42:17;;;;;;;69.87;40.83;;;0.20;99.90;;;;;;5098098;28;20039;-80
2022/03/24 04:44:43;;;;;;;65.50;38.13;;;0.20;99.90;;;;;;5114843;28;20054;-76
2022/03/24 04:47:09;;;;;;;162.27;54.70;;;0.20;99.90;;;;;;5098060;28;20047;-76
2022/03/24 04:49:34;;;;;;;179.30;62.87;;;0.20;99.90;;;;;;5097792;28;20093;-79
2022/03/24 04:52:03;;;;;;;145.17;53.93;;;0.30;99.90;;;;;;5114717;28;20446;-81
2022/03/24 04:54:29;;;;;;;80.97;41.07;;;0.40;99.90;;;;;;5114757;28;20131;-80
2022/03/24 04:56:57;;;;;;;87.40;45.00;;;0.40;99.90;;;;;;5097960;28;20465;-77
2022/03/24 04:59:23;;;;;;;78.97;43.73;;;0.40;99.90;;;;;;5097596;28;20050;-80
2022/03/24 05:01:48;;;;;;;62.47;41.47;;;0.40;99.90;;;;;;5097946;28;20402;-76
2022/03/24 05:04:15;;;;;;;79.47;47.83;;;0.30;99.90;;;;;;5114520;28;20044;-79
2022/03/24 05:06:41;;;;;;;207.53;62.83;;;0.20;99.90;;;;;;5097566;28;20049;-76
2022/03/24 05:09:07;;;;;;;172.90;60.67;;;0.10;99.90;;;;;;5114354;28;20032;-76
2022/03/24 05:11:33;;;;;;;415.80;68.00;;;0.00;99.90;;;;;;5113710;28;20039;-76
2022/03/24 05:13:59;;;;;;;901.00;101.00;;;-0.10;99.90;;;;;;5097332;28;20104;-76
2022/03/24 05:16:25;;;;;;;1299.93;124.60;;;-0.20;99.90;;;;;;5080410;28;20070;-75
2022/03/24 05:18:51;;;;;;;934.20;91.60;;;-0.30;99.90;;;;;;5080523;28;20088;-79
2022/03/24 05:21:16;;;;;;;925.43;97.03;;;-0.40;99.90;;;;;;5114065;28;20072;-76
2022/03/24 05:23:42;;;;;;;1201.07;108.20;;;-0.50;99.90;;;;;;5114392;28;20040;-80
2022/03/24 05:26:08;;;;;;;1182.07;111.87;;;-0.50;99.90;;;;;;5114055;28;20047;-80
2022/03/24 05:28:34;;;;;;;1309.73;119.43;;;-0.50;99.90;;;;;;5097103;28;20096;-81
2022/03/24 05:30:59;;;;;;;1045.13;99.63;;;-0.60;99.90;;;;;;5096895;28;20070;-80
2022/03/24 05:33:25;;;;;;;974.50;99.03;;;-0.60;99.90;;;;;;5113845;28;20087;-80
2022/03/24 05:35:51;;;;;;;664.93;82.13;;;-0.60;99.90;;;;;;5096814;28;20489;-75
2022/03/24 05:38:17;;;;;;;1157.40;120.83;;;-0.70;99.90;;;;;;5096760;28;20044;-80
2022/03/24 05:40:43;;;;;;;1080.27;109.27;;;-0.70;99.90;;;;;;5097023;28;20470;-80
2022/03/24 05:43:08;;;;;;;852.63;94.73;;;-0.60;99.90;;;;;;5096992;28;20112;-75
2022/03/24 05:45:34;;;;;;;673.23;91.27;;;-0.60;99.90;;;;;;5080167;28;20041;-75
2022/03/24 05:48:00;;;;;;;1131.33;114.10;;;-0.50;99.90;;;;;;5079732;28;20062;-80
2022/03/24 05:50:27;;;;;;;1104.17;113.03;;;-0.50;99.90;;;;;;5062930;28;20040;-80
2022/03/24 05:52:53;;;;;;;696.37;85.80;;;-0.50;99.90;;;;;;5113829;28;20504;-76
2022/03/24 05:55:19;;;;;;;631.23;83.57;;;-0.50;99.90;;;;;;5079831;28;20043;-78
2022/03/24 05:57:45;;;;;;;408.70;69.63;;;-0.50;99.90;;;;;;5113239;28;20047;-75
2022/03/24 06:00:11;;;;;;;147.30;55.43;;;-0.40;99.90;;;;;;5113550;28;20035;-77
2022/03/24 06:02:37;;;;;;;113.70;54.77;;;-0.40;99.90;;;;;;5113336;28;20040;-80
2022/03/24 06:05:05;;;;;;;178.83;61.87;;;-0.30;99.90;;;;;;5096319;28;20055;-75
2022/03/24 06:07:33;;;;;;;126.83;56.63;;;-0.20;99.90;;;;;;5113137;28;20057;-80
2022/03/24 06:09:58;;;;;;;111.53;55.17;;;0.00;99.90;;;;;;5079871;28;20051;-76
2022/03/24 06:12:25;;;;;;;928.50;112.30;;;0.00;99.90;;;;;;5096475;28;20040;-75
2022/03/24 06:14:51;;;;;;;677.53;106.63;;;0.10;99.90;;;;;;5096064;28;20055;-80
2022/03/24 06:17:20;;;;;;;323.77;68.67;;;0.10;99.90;;;;;;5112925;28;20061;-76
2022/03/24 06:19:49;;;;;;;133.77;55.53;;;0.10;99.90;;;;;;5095902;28;20044;-76
2022/03/24 06:22:16;;;;;;;212.10;64.67;;;0.10;99.90;;;;;;5095936;28;20533;-76
2022/03/24 06:24:42;;;;;;;141.93;55.70;;;0.10;99.90;;;;;;5112864;28;20048;-76
2022/03/24 06:27:08;;;;;;;156.03;53.63;;;0.10;99.90;;;;;;5113089;28;20478;-80
2022/03/24 06:29:34;;;;;;;392.33;79.10;;;0.10;99.90;;;;;;5095652;28;20044;-75
2022/03/24 06:32:00;;;;;;;260.93;65.87;;;0.20;99.90;;;;;;5112778;28;20435;-75
2022/03/24 06:34:26;;;;;;;193.43;56.70;;;0.20;99.90;;;;;;5095865;28;20101;-80
2022/03/24 06:36:54;;;;;;;126.03;54.67;;;0.30;99.90;;;;;;5112825;28;20048;-76
2022/03/24 06:39:20;;;;;;;80.53;47.40;;;0.40;99.90;;;;;;5096151;28;20501;-80
2022/03/24 06:41:46;;;;;;;137.47;57.57;;;0.50;99.90;;;;;;5078714;28;20040;-80
2022/03/24 06:44:12;;;;;;;173.67;65.27;;;0.60;99.90;;;;;;5112462;28;20040;-80
2022/03/24 06:46:38;;;;;;;237.60;66.67;;;0.80;99.90;;;;;;5112246;28;20058;-81
2022/03/24 06:49:05;;;;;;;130.07;56.90;;;0.90;99.90;;;;;;5112523;28;20122;-76
2022/03/24 06:51:32;;;;;;;127.10;57.67;;;1.00;99.90;;;;;;5095235;28;20048;-80
2022/03/24 06:53:58;;;;;;;131.73;55.57;;;1.10;99.90;;;;;;5078815;28;20044;-75
2022/03/24 06:56:24;;;;;;;129.40;55.93;;;1.10;99.90;;;;;;5112217;28;20039;-75
2022/03/24 06:58:50;;;;;;;98.67;51.80;;;1.20;99.90;;;;;;5112435;28;20118;-80
2022/03/24 07:01:17;;;;;;;104.97;54.53;;;1.30;99.90;;;;;;5112181;28;20082;-80
2022/03/24 07:03:43;;;;;;;108.07;54.93;;;1.40;99.90;;;;;;5112373;28;20052;-76
2022/03/24 07:06:09;;;;;;;106.70;57.17;;;1.60;99.90;;;;;;5112168;28;20405;-76
2022/03/24 07:08:36;;;;;;;180.80;71.80;;;1.80;99.90;;;;;;5112426;28;20486;-79
2022/03/24 07:11:03;;;;;;;277.43;94.47;;;2.00;99.90;;;;;;5078317;28;20082;-80
2022/03/24 07:13:29;;;;;;;364.03;108.30;;;2.40;99.90;;;;;;5111779;28;20131;-79
2022/03/24 07:15:55;;;;;;;333.40;113.90;;;2.90;99.90;;;;;;5078209;28;20100;-75
2022/03/24 07:18:20;;;;;;;290.80;109.37;;;3.30;99.90;;;;;;5095294;28;20040;-76
2022/03/24 07:20:46;;;;;;;313.80;113.80;;;3.80;99.90;;;;;;5095200;28;20121;-78
2022/03/24 07:23:12;;;;;;;324.23;126.47;;;4.10;99.90;;;;;;5111897;28;20402;-80
2022/03/24 07:25:37;;;;;;;271.70;111.30;;;4.40;99.90;;;;;;5111906;28;20058;-80
2022/03/24 07:28:05;;;;;;;263.67;112.77;;;4.70;99.90;;;;;;5078236;28;20047;-76
2022/03/24 07:30:31;;;;;;;246.33;113.40;;;4.90;99.90;;;;;;5111800;28;20079;-80
2022/03/24 07:32:59;;;;;;;235.00;113.83;;;5.20;99.90;;;;;;5094262;28;20556;-76
2022/03/24 07:35:27;;;;;;;225.27;111.28;;;5.40;99.90;;;;;;5111712;28;20043;-80
2022/03/24 07:37:53;;;;;;;212.27;104.35;;;5.70;99.90;;;;;;5094938;28;20044;-76
2022/03/24 07:40:21;;;;;;;183.57;93.00;;;6.00;99.90;;;;;;5111618;28;20050;-80
2022/03/24 07:42:53;;;;;;;175.65;94.93;;;6.10;99.90;;;;;;5094657;28;20130;-76
2022/03/24 07:45:22;;;;;;;153.38;88.80;;;6.30;99.90;;;;;;5111714;28;20039;-81
2022/03/24 07:48:09;;;;;;;138.32;80.25;;;6.60;99.90;;;;;;5094964;28;20399;-76
2022/03/24 07:50:37;;;;;;;132.48;78.93;;;6.70;99.90;;;;;;5111564;28;20056;-76
2022/03/24 07:53:11;;;;;;;121.93;77.80;;;6.90;99.90;;;;;;5111319;28;20149;-76
2022/03/24 07:55:38;;;;;;;121.00;74.28;;;7.10;99.90;;;;;;5111478;28;20051;-77
2022/03/24 07:58:05;;;;;;;105.55;69.15;;;7.20;99.90;;;;;;5094619;28;20130;-76
2022/03/24 08:00:31;;;;;;;109.63;71.03;;;7.40;99.90;;;;;;5111797;28;20490;-76
2022/03/24 08:02:57;;;;;;;105.25;65.70;;;7.60;99.90;;;;;;5111386;28;20047;-76
2022/03/24 08:05:23;;;;;;;106.07;65.95;;;7.80;99.90;;;;;;5094415;28;20040;-76
2022/03/24 08:07:49;;;;;;;91.38;60.13;;;7.90;70.90;;;;;;5094498;28;20110;-76
2022/03/24 08:10:14;;;;;;;99.88;66.75;;;8.10;28.30;;;;;;5111415;28;20147;-81
2022/03/24 08:12:40;;;;;;;95.88;61.97;;;8.30;1.00;;;;;;5111155;28;20139;-77
2022/03/24 08:15:06;;;;;;;86.68;57.50;;;8.40;1.00;;;;;;5077424;28;20391;-76
2022/03/24 08:17:32;;;;;;;85.75;58.13;;;8.60;1.00;;;;;;5111181;28;20044;-81
2022/03/24 08:19:58;;;;;;;83.53;58.92;;;8.80;1.00;;;;;;5094622;28;20036;-81
2022/03/24 08:22:23;;;;;;;85.20;58.10;;;8.90;99.90;;;;;;5094518;28;20047;-81
2022/03/24 08:24:49;;;;;;;88.88;58.95;;;9.10;99.90;;;;;;5111384;28;20047;-76
2022/03/24 08:27:15;;;;;;;84.78;58.55;;;9.10;99.90;;;;;;5077618;28;20406;-76
2022/03/24 08:29:40;;;;;;;84.85;58.10;;;9.30;99.90;;;;;;5111197;28;20055;-81
2022/03/24 08:32:07;;;;;;;84.18;57.17;;;9.50;99.90;;;;;;5094043;28;20086;-80
2022/03/24 08:34:33;;;;;;;90.38;59.28;;;9.60;3.90;;;;;;5111221;28;20040;-76
2022/03/24 08:36:58;;;;;;;81.07;58.30;;;9.70;1.00;;;;;;5094122;28;20181;-76
2022/03/24 08:39:24;;;;;;;83.90;59.42;;;9.90;1.00;;;;;;5094330;28;20540;-80
2022/03/24 08:41:51;;;;;;;83.70;58.78;;;10.10;1.00;;;;;;5094257;28;20050;-77
2022/03/24 08:44:17;;;;;;;89.47;57.13;;;10.20;1.00;;;;;;5111293;28;20048;-76
2022/03/24 08:46:42;;;;;;;80.97;57.45;;;10.30;1.00;;;;;;5097214;28;20054;-76
2022/03/24 08:49:08;;;;;;;83.55;58.70;;;10.50;1.00;;;;;;5114603;28;20044;-76
2022/03/24 08:51:34;;;;;;;90.45;59.67;;;10.60;1.00;;;;;;5114444;28;20132;-80
2022/03/24 08:54:00;;;;;;;82.25;58.60;;;10.70;1.00;;;;;;5114628;28;20054;-79
2022/03/24 08:56:26;;;;;;;79.68;56.13;;;10.90;1.00;;;;;;5114853;28;20036;-77
2022/03/24 08:58:51;;;;;;;78.75;52.33;;;11.10;99.90;;;;;;5097755;28;20051;-76
2022/03/24 09:01:19;;;;;;;74.22;53.58;;;11.20;99.90;;;;;;5114700;28;20432;-81
2022/03/24 09:03:48;;;;;;;73.55;52.40;;;11.30;98.20;;;;;;5114654;28;20230;-76
2022/03/24 09:06:14;;;;;;;76.03;53.20;;;11.50;99.90;;;;;;5081246;28;20496;-76
2022/03/24 09:08:39;;;;;;;68.45;48.47;;;11.70;1.00;;;;;;5097885;28;20463;-76
2022/03/24 09:11:05;;;;;;;70.05;48.58;;;11.90;34.40;;;;;;5114209;28;20051;-81
2022/03/24 09:13:31;;;;;;;77.40;50.05;;;12.00;8.10;;;;;;5063779;28;20056;-81
2022/03/24 09:15:57;;;;;;;73.65;52.33;;;12.10;99.90;;;;;;5080452;28;20048;-76
2022/03/24 09:18:22;;;;;;;74.47;53.97;;;12.30;1.00;;;;;;5097477;28;20394;-81
2022/03/24 09:20:48;;;;;;;72.65;49.97;;;12.70;1.00;;;;;;5097280;28;20036;-78
2022/03/24 09:23:14;;;;;;;68.10;48.35;;;13.40;1.00;;;;;;5114326;28;20051;-77
2022/03/24 09:25:40;;;;;;;68.63;52.03;;;14.30;1.00;;;;;;5114094;28;20047;-80
2022/03/24 09:28:06;;;;;;;65.55;49.28;;;14.80;99.90;;;;;;5113874;28;20048;-76
2022/03/24 09:30:33;;;;;;;63.05;49.00;;;15.30;99.90;;;;;;5113946;28;20406;-76
2022/03/24 09:32:58;;;;;;;64.07;50.40;;;15.80;99.90;;;;;;5113757;28;20046;-77
2022/03/24 09:35:24;;;;;;;64.97;48.15;;;16.00;99.90;;;;;;5096895;28;20040;-81
2022/03/24 09:37:50;;;;;;;64.35;52.60;;;16.30;99.90;;;;;;5113775;28;20036;-81
2022/03/24 09:40:16;;;;;;;58.22;47.03;;;16.40;88.50;;;;;;5079888;28;20497;-77
2022/03/24 09:42:42;;;;;;;63.45;50.53;;;16.60;57.10;;;;;;5113864;28;20056;-77
2022/03/24 09:45:11;;;;;;;62.10;48.03;;;16.80;14.80;;;;;;5079855;28;20043;-81
2022/03/24 09:47:37;;;;;;;61.83;49.28;;;17.00;1.00;;;;;;5096567;28;20039;-77
2022/03/24 09:50:05;;;;;;;61.67;49.33;;;16.70;1.00;;;;;;5113586;28;20050;-81
2022/03/24 09:52:31;;;;;;;61.03;48.17;;;17.00;1.00;;;;;;5113793;28;20040;-77
2022/03/24 09:54:57;;;;;;;61.92;49.42;;;17.10;1.00;;;;;;5113512;28;20409;-77
2022/03/24 09:57:24;;;;;;;60.65;48.85;;;17.40;1.00;;;;;;5112946;28;20058;-77
2022/03/24 09:59:50;;;;;;;62.58;50.83;;;17.20;1.00;;;;;;5079635;28;20075;-77
2022/03/24 10:02:16;;;;;;;58.72;48.05;;;17.70;1.00;;;;;;5113767;28;20039;-81
2022/03/24 10:04:57;;;;;;;58.95;46.30;;;18.10;1.00;;;;;;5096301;28;20077;-81
2022/03/24 10:07:25;;;;;;;61.67;46.78;;;18.10;1.00;;;;;;5096129;28;20044;-77
2022/03/24 10:09:54;;;;;;;52.78;44.60;;;17.90;1.00;;;;;;5113322;28;20039;-77
2022/03/24 10:12:33;;;;;;;55.15;43.72;;;18.10;1.00;;;;;;5112998;28;20039;-82
2022/03/24 10:15:10;;;;;;;56.63;46.78;;;18.30;1.00;;;;;;5113072;28;20512;-81
2022/03/24 10:17:37;;;;;;;58.58;44.20;;;18.30;1.00;;;;;;5096441;28;20508;-81
2022/03/24 10:20:06;;;;;;;54.63;44.47;;;18.40;1.00;;;;;;5096785;28;20174;-81
2022/03/24 10:22:36;;;;;;;59.08;46.85;;;18.30;1.00;;;;;;5115371;27;20054;-77
2022/03/24 10:25:05;;;;;;;61.25;48.55;;;18.50;1.00;;;;;;5121092;27;20159;-76
2022/03/24 10:27:31;;;;;;;57.92;45.72;;;18.30;1.00;;;;;;5133622;27;20534;-76
2022/03/24 10:29:59;;;;;;;53.95;44.10;;;18.50;1.00;;;;;;5124598;27;20040;-76
2022/03/24 10:32:31;;;;;;;56.10;43.63;;;18.50;99.90;;;;;;5114488;27;20044;-77
2022/03/24 10:35:07;;;;;;;55.22;43.30;;;18.50;99.90;;;;;;5133458;27;20431;-82
2022/03/24 10:37:33;;;;;;;54.97;41.70;;;18.20;99.90;;;;;;5113277;27;20054;-80
2022/03/24 10:40:10;;;;;;;56.28;45.83;;;18.60;99.90;;;;;;5097607;28;20039;-77
2022/03/24 10:42:39;;;;;;;51.13;42.47;;;18.80;99.90;;;;;;5125867;27;20126;-82
2022/03/24 10:45:06;;;;;;;59.70;45.17;;;18.90;99.90;;;;;;5132359;27;20573;-77
2022/03/24 10:48:00;;;;;;;55.15;42.20;;;18.70;99.90;;;;;;5131596;27;20042;-77
2022/03/24 10:50:32;;;;;;;59.30;43.67;;;18.40;99.90;;;;;;5124535;27;20494;-82
2022/03/24 10:53:19;;;;;;;55.65;43.42;;;18.70;99.90;;;;;;5113559;27;20047;-76
2022/03/24 10:55:49;;;;;;;51.05;40.90;;;18.60;99.90;;;;;;5112282;28;20047;-81
2022/03/24 10:58:31;;;;;;;54.85;42.47;;;18.80;99.90;;;;;;5102040;27;20512;-77
2022/03/24 11:01:03;;;;;;;48.45;38.17;;;18.60;99.90;;;;;;5129198;27;20043;-81
2022/03/24 11:03:29;;;;;;;47.28;36.17;;;18.60;99.90;;;;;;5119676;27;20547;-77
2022/03/24 11:06:12;;;;;;;49.08;39.35;;;18.60;99.90;;;;;;5095159;28;20039;-77
2022/03/24 11:08:38;;;;;;;45.20;38.95;;;18.90;99.90;;;;;;5111634;28;20048;-77
2022/03/24 11:11:10;;;;;;;48.33;38.33;;;18.90;99.90;;;;;;5112070;28;20044;-82
2022/03/24 11:14:03;;;;;;;49.60;38.47;;;18.70;99.90;;;;;;5112079;28;20300;-77
2022/03/24 11:16:34;;;;;;;45.30;38.28;;;18.90;99.90;;;;;;5109199;28;20043;-82
2022/03/24 11:19:01;;;;;;;46.38;38.88;;;18.80;99.90;;;;;;5112185;28;20075;-81
2022/03/24 11:21:39;;;;;;;48.10;39.40;;;18.50;99.90;;;;;;5112242;28;20079;-81
2022/03/24 11:24:06;;;;;;;52.20;38.83;;;18.60;99.90;;;;;;5112641;28;20378;-77
2022/03/24 11:26:33;;;;;;;45.90;38.20;;;18.90;99.90;;;;;;5112684;28;20175;-77
2022/03/24 11:28:59;;;;;;;45.60;37.22;;;19.10;99.90;;;;;;5112643;28;20042;-77
2022/03/24 11:31:31;;;;;;;46.67;36.90;;;19.00;99.90;;;;;;5095523;28;20051;-77
2022/03/24 11:34:00;;;;;;;46.10;35.60;;;18.90;99.90;;;;;;5095703;28;20054;-77
2022/03/24 11:36:27;;;;;;;47.13;36.35;;;18.90;99.90;;;;;;5112711;28;20551;-82
2022/03/24 11:39:05;;;;;;;43.88;36.03;;;19.00;99.90;;;;;;5079205;28;20045;-82
2022/03/24 11:41:51;;;;;;;42.67;34.15;;;18.90;99.90;;;;;;5111700;28;20048;-78
2022/03/24 11:44:42;;;;;;;42.00;34.20;;;19.00;99.90;;;;;;5112027;28;20379;-77
2022/03/24 11:47:19;;;;;;;41.53;32.95;;;19.10;99.90;;;;;;5094572;28;20123;-77
2022/03/24 11:50:08;;;;;;;42.42;33.53;;;19.10;99.90;;;;;;5111870;28;20402;-77
2022/03/24 11:52:34;;;;;;;39.53;33.15;;;19.00;99.90;;;;;;5111550;28;20040;-81
2022/03/24 11:55:00;;;;;;;37.50;31.52;;;19.20;99.90;;;;;;5111614;28;20130;-81
2022/03/24 11:57:33;;;;;;;41.90;31.92;;;19.30;99.90;;;;;;5111533;28;20040;-76
2022/03/24 12:00:14;;;;;;;40.45;33.63;;;19.40;99.90;;;;;;5094663;28;20047;-77
2022/03/24 12:02:40;;;;;;;44.13;32.50;;;19.80;99.90;;;;;;5111622;28;20040;-77
2022/03/24 12:05:06;;;;;;;44.35;35.45;;;19.70;99.90;;;;;;5111508;28;20047;-81
2022/03/24 12:07:32;;;;;;;38.78;32.97;;;19.70;99.90;;;;;;5111686;28;20549;-82
2022/03/24 12:10:08;;;;;;;39.72;31.92;;;19.70;99.90;;;;;;5111488;28;20131;-77
2022/03/24 12:12:34;;;;;;;39.40;32.88;;;20.20;99.90;;;;;;5111515;28;20550;-82
2022/03/24 12:15:17;;;;;;;38.15;32.20;;;20.30;99.90;;;;;;5094784;28;20089;-77
2022/03/24 12:18:03;;;;;;;44.97;36.15;;;20.40;99.90;;;;;;5111374;28;20050;-82
2022/03/24 12:20:46;;;;;;;44.83;34.17;;;20.00;99.90;;;;;;5097444;28;20050;-82
2022/03/24 12:23:12;;;;;;;43.40;33.83;;;20.40;99.90;;;;;;5115393;28;20077;-82
2022/03/24 12:25:39;;;;;;;46.58;35.13;;;20.10;99.90;;;;;;5115481;28;20031;-81
2022/03/24 12:28:06;;;;;;;42.15;36.65;;;20.00;99.90;;;;;;5098213;28;20055;-77
2022/03/24 12:30:46;;;;;;;41.97;35.30;;;20.00;99.90;;;;;;5098008;28;20047;-82
2022/03/24 12:33:14;;;;;;;42.05;34.78;;;20.10;99.90;;;;;;5115648;28;20047;-82
2022/03/24 12:35:55;;;;;;;40.95;34.08;;;20.30;99.90;;;;;;5098731;28;20393;-77
2022/03/24 12:38:27;;;;;;;41.92;34.60;;;20.40;99.90;;;;;;5115359;28;20394;-77